sensor_id;sensor_type;location;lat;lon;timestamp;pressure;altitude;pressure_sealevel;temperature;humidity
61676;BME280;47574;52.090;5.244;2023-02-16T00:03:30;102353.0;;;12.85;48.81
61676;BME280;47574;52.090;5.244;2023-02-16T00:05:21;102351.0;;;13.05;48.54
61676;BME280;47574;52.090;5.244;2023-02-16T00:06:57;102353.0;;;12.99;48.55
61676;BME280;47574;52.090;5.244;2023-02-16T00:08:34;102353.0;;;13.05;48.43
61676;BME280;47574;52.090;5.244;2023-02-16T00:15:47;102356.0;;;12.96;48.52
61676;BME280;47574;52.090;5.244;2023-02-16T00:17:23;102352.0;;;13.05;48.37
61676;BME280;47574;52.090;5.244;2023-02-16T00:19:00;102355.0;;;12.99;48.65
61676;BME280;47574;52.090;5.244;2023-02-16T00:22:13;102351.0;;;12.98;48.59
61676;BME280;47574;52.090;5.244;2023-02-16T00:23:49;102351.0;;;13.03;48.38
61676;BME280;47574;52.090;5.244;2023-02-16T00:25:26;102351.0;;;12.83;48.8
61676;BME280;47574;52.090;5.244;2023-02-16T00:28:49;102355.0;;;12.98;48.48
61676;BME280;47574;52.090;5.244;2023-02-16T00:30:27;102351.0;;;12.96;48.44
61676;BME280;47574;52.090;5.244;2023-02-16T00:32:04;102356.0;;;12.92;48.45
61676;BME280;47574;52.090;5.244;2023-02-16T00:33:41;102352.0;;;12.97;48.46
61676;BME280;47574;52.090;5.244;2023-02-16T00:36:57;102348.0;;;12.86;48.77
61676;BME280;47574;52.090;5.244;2023-02-16T00:38:35;102348.0;;;12.87;48.64
61676;BME280;47574;52.090;5.244;2023-02-16T00:40:12;102344.0;;;12.85;48.57
61676;BME280;47574;52.090;5.244;2023-02-16T00:43:28;102340.0;;;12.86;48.71
61676;BME280;47574;52.090;5.244;2023-02-16T00:45:12;102341.0;;;12.93;48.5
61676;BME280;47574;52.090;5.244;2023-02-16T00:46:51;102342.0;;;12.86;48.62
61676;BME280;47574;52.090;5.244;2023-02-16T00:48:27;102349.0;;;12.86;48.54
61676;BME280;47574;52.090;5.244;2023-02-16T00:51:49;102340.0;;;12.69;48.95
61676;BME280;47574;52.090;5.244;2023-02-16T00:53:25;102343.0;;;12.87;48.56
61676;BME280;47574;52.090;5.244;2023-02-16T00:55:05;102345.0;;;12.79;48.79
61676;BME280;47574;52.090;5.244;2023-02-16T00:56:44;102339.0;;;12.78;48.78
61676;BME280;47574;52.090;5.244;2023-02-16T01:00:04;102343.0;;;12.83;48.74
61676;BME280;47574;52.090;5.244;2023-02-16T01:01:47;102335.0;;;12.87;48.57
61676;BME280;47574;52.090;5.244;2023-02-16T01:03:26;102332.0;;;12.77;48.82
61676;BME280;47574;52.090;5.244;2023-02-16T01:05:04;102330.0;;;12.74;48.98
61676;BME280;47574;52.090;5.244;2023-02-16T01:11:14;102341.0;;;12.7;49.01
61676;BME280;47574;52.090;5.244;2023-02-16T01:14:26;102343.0;;;12.77;48.68
61676;BME280;47574;52.090;5.244;2023-02-16T01:16:11;102337.0;;;12.71;48.83
61676;BME280;47574;52.090;5.244;2023-02-16T01:17:47;102330.0;;;12.85;48.52
61676;BME280;47574;52.090;5.244;2023-02-16T01:21:00;102330.0;;;12.76;48.66
61676;BME280;47574;52.090;5.244;2023-02-16T01:22:37;102326.0;;;12.72;48.78
61676;BME280;47574;52.090;5.244;2023-02-16T01:24:13;102324.0;;;12.64;48.9
61676;BME280;47574;52.090;5.244;2023-02-16T01:27:25;102322.0;;;12.59;49.08
61676;BME280;47574;52.090;5.244;2023-02-16T01:29:02;102321.0;;;12.69;48.85
61676;BME280;47574;52.090;5.244;2023-02-16T01:30:38;102317.0;;;12.46;49.42
61676;BME280;47574;52.090;5.244;2023-02-16T01:32:15;102322.0;;;12.54;49.24
61676;BME280;47574;52.090;5.244;2023-02-16T01:37:13;102320.0;;;12.61;49.11
61676;BME280;47574;52.090;5.244;2023-02-16T01:38:50;102314.0;;;12.52;49.26
61676;BME280;47574;52.090;5.244;2023-02-16T01:42:26;102316.0;;;12.48;49.4
61676;BME280;47574;52.090;5.244;2023-02-16T01:44:10;102318.0;;;12.46;49.6
61676;BME280;47574;52.090;5.244;2023-02-16T01:45:54;102315.0;;;12.49;49.47
61676;BME280;47574;52.090;5.244;2023-02-16T01:47:37;102308.0;;;12.44;49.46
61676;BME280;47574;52.090;5.244;2023-02-16T01:49:18;102309.0;;;12.63;49.18
61676;BME280;47574;52.090;5.244;2023-02-16T01:52:43;102319.0;;;12.55;49.43
61676;BME280;47574;52.090;5.244;2023-02-16T01:54:29;102307.0;;;12.6;49.31
61676;BME280;47574;52.090;5.244;2023-02-16T01:56:14;102309.0;;;12.62;49.29
61676;BME280;47574;52.090;5.244;2023-02-16T01:57:59;102308.0;;;12.62;49.19
61676;BME280;47574;52.090;5.244;2023-02-16T01:59:58;102300.0;;;12.64;49.22
61676;BME280;47574;52.090;5.244;2023-02-16T02:01:39;102298.0;;;12.53;49.43
61676;BME280;47574;52.090;5.244;2023-02-16T02:07:27;102298.0;;;12.59;49.45
61676;BME280;47574;52.090;5.244;2023-02-16T02:09:10;102299.0;;;12.44;49.68
61676;BME280;47574;52.090;5.244;2023-02-16T02:10:59;102299.0;;;12.59;49.39
61676;BME280;47574;52.090;5.244;2023-02-16T02:12:48;102296.0;;;12.65;49.3
61676;BME280;47574;52.090;5.244;2023-02-16T02:14:27;102293.0;;;12.67;49.35
61676;BME280;47574;52.090;5.244;2023-02-16T02:16:07;102292.0;;;12.62;49.47
61676;BME280;47574;52.090;5.244;2023-02-16T02:19:22;102287.0;;;12.63;49.53
61676;BME280;47574;52.090;5.244;2023-02-16T02:25:22;102282.0;;;12.73;49.24
61676;BME280;47574;52.090;5.244;2023-02-16T02:27:19;102280.0;;;12.77;49.16
61676;BME280;47574;52.090;5.244;2023-02-16T02:29:07;102283.0;;;12.73;49.25
61676;BME280;47574;52.090;5.244;2023-02-16T02:30:52;102280.0;;;12.77;49.08
61676;BME280;47574;52.090;5.244;2023-02-16T02:34:39;102285.0;;;12.49;49.86
61676;BME280;47574;52.090;5.244;2023-02-16T02:36:29;102282.0;;;12.31;50.09
61676;BME280;47574;52.090;5.244;2023-02-16T02:38:13;102278.0;;;12.42;49.73
61676;BME280;47574;52.090;5.244;2023-02-16T02:39:57;102276.0;;;12.28;50.05
61676;BME280;47574;52.090;5.244;2023-02-16T02:42:23;102280.0;;;12.31;50.08
61676;BME280;47574;52.090;5.244;2023-02-16T02:44:04;102278.0;;;12.17;50.38
61676;BME280;47574;52.090;5.244;2023-02-16T02:45:46;102273.0;;;11.95;50.9
61676;BME280;47574;52.090;5.244;2023-02-16T02:49:13;102269.0;;;12.06;50.76
61676;BME280;47574;52.090;5.244;2023-02-16T02:51:54;102272.0;;;12.19;50.44
61676;BME280;47574;52.090;5.244;2023-02-16T02:53:33;102266.0;;;12.16;50.46
61676;BME280;47574;52.090;5.244;2023-02-16T03:00:49;102253.0;;;11.78;51.52
61676;BME280;47574;52.090;5.244;2023-02-16T03:02:27;102253.0;;;11.78;51.5
61676;BME280;47574;52.090;5.244;2023-02-16T03:05:50;102250.0;;;11.98;51.25
61676;BME280;47574;52.090;5.244;2023-02-16T03:07:48;102248.0;;;11.87;51.37
61676;BME280;47574;52.090;5.244;2023-02-16T03:09:27;102247.0;;;12.06;50.97
61676;BME280;47574;52.090;5.244;2023-02-16T03:14:40;102245.0;;;11.86;51.38
61676;BME280;47574;52.090;5.244;2023-02-16T03:16:22;102237.0;;;11.76;51.72
61676;BME280;47574;52.090;5.244;2023-02-16T03:30:32;102240.0;;;12.18;50.86
61676;BME280;47574;52.090;5.244;2023-02-16T03:32:09;102240.0;;;12.09;50.98
61676;BME280;47574;52.090;5.244;2023-02-16T03:33:45;102242.0;;;12.23;50.77
61676;BME280;47574;52.090;5.244;2023-02-16T03:37:00;102233.0;;;12.24;50.76
61676;BME280;47574;52.090;5.244;2023-02-16T03:38:38;102233.0;;;11.94;51.38
61676;BME280;47574;52.090;5.244;2023-02-16T03:40:32;102236.0;;;11.83;51.78
61676;BME280;47574;52.090;5.244;2023-02-16T03:42:10;102232.0;;;11.87;51.65
61676;BME280;47574;52.090;5.244;2023-02-16T03:45:23;102237.0;;;12.16;51.06
61676;BME280;47574;52.090;5.244;2023-02-16T03:48:36;102239.0;;;11.96;51.7
61676;BME280;47574;52.090;5.244;2023-02-16T03:50:12;102240.0;;;11.98;51.68
61676;BME280;47574;52.090;5.244;2023-02-16T03:53:26;102242.0;;;12.24;51.12
61676;BME280;47574;52.090;5.244;2023-02-16T03:55:02;102242.0;;;12.38;50.75
61676;BME280;47574;52.090;5.244;2023-02-16T03:56:38;102251.0;;;12.57;50.42
61676;BME280;47574;52.090;5.244;2023-02-16T03:59:57;102255.0;;;12.71;49.95
61676;BME280;47574;52.090;5.244;2023-02-16T04:01:34;102256.0;;;12.76;49.85
61676;BME280;47574;52.090;5.244;2023-02-16T04:03:11;102255.0;;;12.65;50.01
61676;BME280;47574;52.090;5.244;2023-02-16T04:06:24;102257.0;;;12.76;49.7
61676;BME280;47574;52.090;5.244;2023-02-16T04:08:01;102263.0;;;12.77;49.64
61676;BME280;47574;52.090;5.244;2023-02-16T04:09:38;102248.0;;;12.77;49.72
61676;BME280;47574;52.090;5.244;2023-02-16T04:12:38;102250.0;;;12.85;49.57
61676;BME280;47574;52.090;5.244;2023-02-16T04:14:14;102242.0;;;13.01;49.2
61676;BME280;47574;52.090;5.244;2023-02-16T04:15:50;102239.0;;;12.92;49.36
61676;BME280;47574;52.090;5.244;2023-02-16T04:17:26;102241.0;;;12.95;49.31
61676;BME280;47574;52.090;5.244;2023-02-16T04:20:39;102236.0;;;12.87;49.45
61676;BME280;47574;52.090;5.244;2023-02-16T04:22:15;102234.0;;;12.93;49.33
61676;BME280;47574;52.090;5.244;2023-02-16T04:23:51;102235.0;;;12.95;49.4
61676;BME280;47574;52.090;5.244;2023-02-16T04:27:04;102232.0;;;12.97;49.26
61676;BME280;47574;52.090;5.244;2023-02-16T04:28:40;102230.0;;;12.94;49.33
61676;BME280;47574;52.090;5.244;2023-02-16T04:30:19;102236.0;;;13.01;49.12
61676;BME280;47574;52.090;5.244;2023-02-16T04:33:32;102246.0;;;12.88;49.52
61676;BME280;47574;52.090;5.244;2023-02-16T04:35:08;102248.0;;;12.89;49.51
61676;BME280;47574;52.090;5.244;2023-02-16T04:36:45;102242.0;;;12.92;49.45
61676;BME280;47574;52.090;5.244;2023-02-16T04:38:21;102250.0;;;12.83;49.75
61676;BME280;47574;52.090;5.244;2023-02-16T04:41:34;102246.0;;;12.94;49.46
61676;BME280;47574;52.090;5.244;2023-02-16T04:43:10;102237.0;;;12.93;49.44
61676;BME280;47574;52.090;5.244;2023-02-16T04:44:46;102233.0;;;12.93;49.51
61676;BME280;47574;52.090;5.244;2023-02-16T04:47:59;102234.0;;;12.85;49.85
61676;BME280;47574;52.090;5.244;2023-02-16T04:49:35;102239.0;;;12.99;49.46
61676;BME280;47574;52.090;5.244;2023-02-16T04:51:12;102247.0;;;12.87;49.72
61676;BME280;47574;52.090;5.244;2023-02-16T04:54:24;102236.0;;;12.92;49.74
61676;BME280;47574;52.090;5.244;2023-02-16T04:56:00;102236.0;;;12.93;49.69
61676;BME280;47574;52.090;5.244;2023-02-16T04:57:38;102237.0;;;12.95;49.71
61676;BME280;47574;52.090;5.244;2023-02-16T04:59:15;102241.0;;;13.11;49.4
61676;BME280;47574;52.090;5.244;2023-02-16T05:02:28;102240.0;;;13.15;49.36
61676;BME280;47574;52.090;5.244;2023-02-16T05:04:04;102233.0;;;13.08;49.59
61676;BME280;47574;52.090;5.244;2023-02-16T05:05:40;102228.0;;;13.02;49.53
61676;BME280;47574;52.090;5.244;2023-02-16T05:08:52;102224.0;;;13.03;49.59
61676;BME280;47574;52.090;5.244;2023-02-16T05:10:29;102224.0;;;13.18;49.17
61676;BME280;47574;52.090;5.244;2023-02-16T05:16:15;102206.0;;;13.0;49.65
61676;BME280;47574;52.090;5.244;2023-02-16T05:19:27;102211.0;;;13.09;49.53
61676;BME280;47574;52.090;5.244;2023-02-16T05:21:35;102214.0;;;13.13;49.57
61676;BME280;47574;52.090;5.244;2023-02-16T05:23:11;102214.0;;;13.25;49.33
61676;BME280;47574;52.090;5.244;2023-02-16T05:24:47;102210.0;;;12.97;49.89
61676;BME280;47574;52.090;5.244;2023-02-16T05:28:02;102205.0;;;13.07;49.76
61676;BME280;47574;52.090;5.244;2023-02-16T05:29:39;102212.0;;;12.81;50.36
61676;BME280;47574;52.090;5.244;2023-02-16T05:31:15;102207.0;;;12.86;50.31
61676;BME280;47574;52.090;5.244;2023-02-16T05:32:51;102205.0;;;12.95;50.04
61676;BME280;47574;52.090;5.244;2023-02-16T05:36:05;102207.0;;;12.97;50.1
61676;BME280;47574;52.090;5.244;2023-02-16T05:37:41;102209.0;;;13.0;50.1
61676;BME280;47574;52.090;5.244;2023-02-16T05:39:18;102211.0;;;12.94;50.27
61676;BME280;47574;52.090;5.244;2023-02-16T05:42:30;102211.0;;;13.04;50.07
61676;BME280;47574;52.090;5.244;2023-02-16T05:44:07;102209.0;;;12.93;50.33
61676;BME280;47574;52.090;5.244;2023-02-16T05:45:44;102207.0;;;12.95;50.09
61676;BME280;47574;52.090;5.244;2023-02-16T05:48:57;102200.0;;;12.98;50.11
61676;BME280;47574;52.090;5.244;2023-02-16T05:50:33;102188.0;;;13.01;50.15
61676;BME280;47574;52.090;5.244;2023-02-16T05:52:09;102194.0;;;13.11;49.9
61676;BME280;47574;52.090;5.244;2023-02-16T05:53:45;102213.0;;;12.9;50.21
61676;BME280;47574;52.090;5.244;2023-02-16T05:56:58;102209.0;;;13.03;49.86
61676;BME280;47574;52.090;5.244;2023-02-16T05:58:36;102206.0;;;13.0;50.16
61676;BME280;47574;52.090;5.244;2023-02-16T06:00:14;102205.0;;;13.06;49.86
61676;BME280;47574;52.090;5.244;2023-02-16T06:03:26;102202.0;;;12.95;50.16
61676;BME280;47574;52.090;5.244;2023-02-16T06:05:02;102205.0;;;13.09;49.74
61676;BME280;47574;52.090;5.244;2023-02-16T06:06:38;102209.0;;;13.07;49.95
61676;BME280;47574;52.090;5.244;2023-02-16T06:09:50;102206.0;;;12.93;50.15
61676;BME280;47574;52.090;5.244;2023-02-16T06:11:44;102216.0;;;13.07;49.98
61676;BME280;47574;52.090;5.244;2023-02-16T06:13:21;102220.0;;;13.01;50.04
61676;BME280;47574;52.090;5.244;2023-02-16T06:14:59;102218.0;;;13.0;50.13
61676;BME280;47574;52.090;5.244;2023-02-16T06:18:14;102210.0;;;12.98;50.03
61676;BME280;47574;52.090;5.244;2023-02-16T06:19:50;102214.0;;;13.01;50.11
61676;BME280;47574;52.090;5.244;2023-02-16T06:21:27;102210.0;;;12.86;50.31
61676;BME280;47574;52.090;5.244;2023-02-16T06:23:05;102214.0;;;12.68;50.73
61676;BME280;47574;52.090;5.244;2023-02-16T06:26:18;102211.0;;;12.97;50.23
61676;BME280;47574;52.090;5.244;2023-02-16T06:27:56;102215.0;;;13.07;49.91
61676;BME280;47574;52.090;5.244;2023-02-16T06:29:32;102216.0;;;13.06;49.92
61676;BME280;47574;52.090;5.244;2023-02-16T06:32:45;102216.0;;;12.99;50.15
61676;BME280;47574;52.090;5.244;2023-02-16T06:34:22;102216.0;;;13.0;50.17
61676;BME280;47574;52.090;5.244;2023-02-16T06:35:59;102219.0;;;13.11;50.03
61676;BME280;47574;52.090;5.244;2023-02-16T06:37:35;102222.0;;;13.12;49.94
61676;BME280;47574;52.090;5.244;2023-02-16T06:40:50;102220.0;;;13.02;50.15
61676;BME280;47574;52.090;5.244;2023-02-16T06:42:26;102216.0;;;13.03;50.23
61676;BME280;47574;52.090;5.244;2023-02-16T06:44:04;102214.0;;;13.04;50.26
61676;BME280;47574;52.090;5.244;2023-02-16T06:47:18;102206.0;;;13.03;50.15
61676;BME280;47574;52.090;5.244;2023-02-16T06:48:54;102209.0;;;13.11;50.05
61676;BME280;47574;52.090;5.244;2023-02-16T06:50:31;102211.0;;;13.07;50.05
61676;BME280;47574;52.090;5.244;2023-02-16T06:53:43;102216.0;;;13.11;49.94
61676;BME280;47574;52.090;5.244;2023-02-16T06:55:19;102213.0;;;12.85;50.63
61676;BME280;47574;52.090;5.244;2023-02-16T06:56:56;102215.0;;;12.99;50.45
61676;BME280;47574;52.090;5.244;2023-02-16T06:58:32;102220.0;;;13.24;50.0
61676;BME280;47574;52.090;5.244;2023-02-16T07:01:45;102221.0;;;13.13;50.11
61676;BME280;47574;52.090;5.244;2023-02-16T07:03:21;102214.0;;;13.07;50.32
61676;BME280;47574;52.090;5.244;2023-02-16T07:04:57;102216.0;;;12.94;50.59
61676;BME280;47574;52.090;5.244;2023-02-16T07:08:10;102220.0;;;13.02;50.42
61676;BME280;47574;52.090;5.244;2023-02-16T07:09:46;102221.0;;;13.11;50.41
61676;BME280;47574;52.090;5.244;2023-02-16T07:11:22;102226.0;;;13.05;50.59
61676;BME280;47574;52.090;5.244;2023-02-16T07:14:34;102228.0;;;13.03;50.59
61676;BME280;47574;52.090;5.244;2023-02-16T07:16:11;102230.0;;;13.25;50.16
61676;BME280;47574;52.090;5.244;2023-02-16T07:17:48;102233.0;;;13.18;50.34
61676;BME280;47574;52.090;5.244;2023-02-16T07:19:25;102230.0;;;13.08;50.53
61676;BME280;47574;52.090;5.244;2023-02-16T07:22:40;102232.0;;;13.21;50.19
61676;BME280;47574;52.090;5.244;2023-02-16T07:24:16;102230.0;;;13.48;49.63
61676;BME280;47574;52.090;5.244;2023-02-16T07:25:52;102238.0;;;13.35;49.88
61676;BME280;47574;52.090;5.244;2023-02-16T07:29:05;102245.0;;;13.41;49.72
61676;BME280;47574;52.090;5.244;2023-02-16T07:30:42;102246.0;;;13.44;49.8
61676;BME280;47574;52.090;5.244;2023-02-16T07:32:19;102251.0;;;13.29;49.93
61676;BME280;47574;52.090;5.244;2023-02-16T07:35:31;102245.0;;;13.06;50.46
61676;BME280;47574;52.090;5.244;2023-02-16T07:37:08;102246.0;;;13.35;50.14
61676;BME280;47574;52.090;5.244;2023-02-16T07:38:44;102247.0;;;13.43;49.9
61676;BME280;47574;52.090;5.244;2023-02-16T07:40:22;102255.0;;;13.28;50.3
61676;BME280;47574;52.090;5.244;2023-02-16T07:43:35;102251.0;;;13.29;50.29
61676;BME280;47574;52.090;5.244;2023-02-16T07:45:12;102255.0;;;13.35;50.17
61676;BME280;47574;52.090;5.244;2023-02-16T07:46:48;102253.0;;;13.36;50.18
61676;BME280;47574;52.090;5.244;2023-02-16T07:50:02;102256.0;;;13.16;50.62
61676;BME280;47574;52.090;5.244;2023-02-16T07:51:39;102255.0;;;13.18;50.66
61676;BME280;47574;52.090;5.244;2023-02-16T07:53:16;102257.0;;;13.3;50.3
61676;BME280;47574;52.090;5.244;2023-02-16T07:56:31;102255.0;;;13.34;50.37
61676;BME280;47574;52.090;5.244;2023-02-16T07:58:11;102256.0;;;13.44;50.17
61676;BME280;47574;52.090;5.244;2023-02-16T07:59:49;102256.0;;;13.18;50.69
61676;BME280;47574;52.090;5.244;2023-02-16T08:01:26;102257.0;;;13.12;50.82
61676;BME280;47574;52.090;5.244;2023-02-16T08:04:41;102259.0;;;13.18;50.76
61676;BME280;47574;52.090;5.244;2023-02-16T08:06:18;102266.0;;;13.25;50.69
61676;BME280;47574;52.090;5.244;2023-02-16T08:07:55;102271.0;;;13.13;50.87
61676;BME280;47574;52.090;5.244;2023-02-16T08:11:09;102271.0;;;13.37;50.65
61676;BME280;47574;52.090;5.244;2023-02-16T08:12:49;102272.0;;;13.48;50.4
61676;BME280;47574;52.090;5.244;2023-02-16T08:14:25;102273.0;;;13.42;50.45
61676;BME280;47574;52.090;5.244;2023-02-16T08:16:01;102267.0;;;13.4;50.4
61676;BME280;47574;52.090;5.244;2023-02-16T08:19:14;102268.0;;;13.56;50.3
61676;BME280;47574;52.090;5.244;2023-02-16T08:20:50;102270.0;;;13.54;50.34
61676;BME280;47574;52.090;5.244;2023-02-16T08:22:26;102276.0;;;13.4;50.58
61676;BME280;47574;52.090;5.244;2023-02-16T08:25:43;102275.0;;;13.56;50.35
61676;BME280;47574;52.090;5.244;2023-02-16T08:27:19;102278.0;;;13.71;50.08
61676;BME280;47574;52.090;5.244;2023-02-16T08:28:56;102278.0;;;13.56;50.27
61676;BME280;47574;52.090;5.244;2023-02-16T08:30:34;102274.0;;;13.66;50.16
61676;BME280;47574;52.090;5.244;2023-02-16T08:33:49;102276.0;;;13.58;50.34
61676;BME280;47574;52.090;5.244;2023-02-16T08:35:26;102275.0;;;13.51;50.5
61676;BME280;47574;52.090;5.244;2023-02-16T08:37:04;102277.0;;;13.66;50.24
61676;BME280;47574;52.090;5.244;2023-02-16T08:40:23;102281.0;;;13.71;50.03
61676;BME280;47574;52.090;5.244;2023-02-16T08:42:00;102285.0;;;13.62;50.36
61676;BME280;47574;52.090;5.244;2023-02-16T08:43:37;102284.0;;;13.25;51.32
61676;BME280;47574;52.090;5.244;2023-02-16T08:45:14;102288.0;;;13.48;50.61
61676;BME280;47574;52.090;5.244;2023-02-16T08:48:34;102294.0;;;13.51;50.79
61676;BME280;47574;52.090;5.244;2023-02-16T08:50:11;102289.0;;;13.64;50.58
61676;BME280;47574;52.090;5.244;2023-02-16T08:51:49;102286.0;;;13.74;50.37
61676;BME280;47574;52.090;5.244;2023-02-16T08:55:08;102285.0;;;13.63;50.64
61676;BME280;47574;52.090;5.244;2023-02-16T08:56:47;102287.0;;;13.51;51.05
61676;BME280;47574;52.090;5.244;2023-02-16T08:58:24;102283.0;;;13.68;51.11
61676;BME280;47574;52.090;5.244;2023-02-16T09:01:05;102286.0;;;13.69;51.35
61676;BME280;47574;52.090;5.244;2023-02-16T09:02:42;102288.0;;;13.68;51.54
61676;BME280;47574;52.090;5.244;2023-02-16T09:04:19;102289.0;;;13.66;51.65
61676;BME280;47574;52.090;5.244;2023-02-16T09:07:36;102292.0;;;13.61;52.33
61676;BME280;47574;52.090;5.244;2023-02-16T09:09:13;102293.0;;;13.63;52.32
61676;BME280;47574;52.090;5.244;2023-02-16T09:10:49;102293.0;;;13.61;52.74
61676;BME280;47574;52.090;5.244;2023-02-16T09:12:26;102297.0;;;13.57;53.84
61676;BME280;47574;52.090;5.244;2023-02-16T09:15:41;102300.0;;;13.79;53.27
61676;BME280;47574;52.090;5.244;2023-02-16T09:17:18;102299.0;;;13.7;53.85
61676;BME280;47574;52.090;5.244;2023-02-16T09:18:55;102306.0;;;13.71;54.39
61676;BME280;47574;52.090;5.244;2023-02-16T09:22:08;102297.0;;;13.55;54.09
61676;BME280;47574;52.090;5.244;2023-02-16T09:23:47;102296.0;;;13.54;55.2
61676;BME280;47574;52.090;5.244;2023-02-16T09:25:26;102287.0;;;13.68;54.99
61676;BME280;47574;52.090;5.244;2023-02-16T09:27:03;102282.0;;;13.67;55.22
61676;BME280;47574;52.090;5.244;2023-02-16T09:30:16;102274.0;;;13.61;55.66
61676;BME280;47574;52.090;5.244;2023-02-16T09:31:53;102266.0;;;13.75;55.18
61676;BME280;47574;52.090;5.244;2023-02-16T09:33:29;102273.0;;;13.82;55.44
61676;BME280;47574;52.090;5.244;2023-02-16T09:36:42;102286.0;;;13.77;55.54
61676;BME280;47574;52.090;5.244;2023-02-16T09:38:20;102289.0;;;13.34;55.82
61676;BME280;47574;52.090;5.244;2023-02-16T09:39:56;102290.0;;;13.59;55.68
61676;BME280;47574;52.090;5.244;2023-02-16T09:43:44;102289.0;;;13.33;56.39
61676;BME280;47574;52.090;5.244;2023-02-16T09:45:25;102288.0;;;13.54;56.02
61676;BME280;47574;52.090;5.244;2023-02-16T09:47:05;102286.0;;;13.67;55.76
61676;BME280;47574;52.090;5.244;2023-02-16T09:48:52;102284.0;;;13.66;56.11
61676;BME280;47574;52.090;5.244;2023-02-16T09:50:31;102284.0;;;13.72;55.81
61676;BME280;47574;52.090;5.244;2023-02-16T09:52:15;102277.0;;;13.8;55.84
61676;BME280;47574;52.090;5.244;2023-02-16T09:55:57;102285.0;;;13.67;56.21
61676;BME280;47574;52.090;5.244;2023-02-16T09:57:52;102290.0;;;13.76;56.13
61676;BME280;47574;52.090;5.244;2023-02-16T09:59:43;102298.0;;;13.75;55.51
61676;BME280;47574;52.090;5.244;2023-02-16T10:01:30;102301.0;;;13.76;56.06
61676;BME280;47574;52.090;5.244;2023-02-16T10:03:22;102299.0;;;13.76;56.3
61676;BME280;47574;52.090;5.244;2023-02-16T10:05:20;102300.0;;;13.77;56.03
61676;BME280;47574;52.090;5.244;2023-02-16T10:07:10;102303.0;;;13.81;56.1
61676;BME280;47574;52.090;5.244;2023-02-16T10:09:03;102302.0;;;13.94;56.08
61676;BME280;47574;52.090;5.244;2023-02-16T10:12:32;102306.0;;;13.75;56.39
61676;BME280;47574;52.090;5.244;2023-02-16T10:14:19;102297.0;;;13.94;55.92
61676;BME280;47574;52.090;5.244;2023-02-16T10:16:00;102298.0;;;13.95;56.06
61676;BME280;47574;52.090;5.244;2023-02-16T10:17:44;102294.0;;;14.06;56.32
61676;BME280;47574;52.090;5.244;2023-02-16T10:19:27;102293.0;;;14.09;56.26
61676;BME280;47574;52.090;5.244;2023-02-16T10:22:54;102293.0;;;14.09;56.4
61676;BME280;47574;52.090;5.244;2023-02-16T10:24:41;102295.0;;;14.02;56.38
61676;BME280;47574;52.090;5.244;2023-02-16T10:26:28;102290.0;;;14.05;56.26
61676;BME280;47574;52.090;5.244;2023-02-16T10:28:15;102290.0;;;13.94;56.4
61676;BME280;47574;52.090;5.244;2023-02-16T10:29:52;102297.0;;;14.17;56.35
61676;BME280;47574;52.090;5.244;2023-02-16T10:33:15;102293.0;;;13.84;56.76
61676;BME280;47574;52.090;5.244;2023-02-16T10:35:00;102288.0;;;13.94;57.12
61676;BME280;47574;52.090;5.244;2023-02-16T10:37:01;102293.0;;;13.72;57.25
61676;BME280;47574;52.090;5.244;2023-02-16T10:38:53;102294.0;;;13.74;57.05
61676;BME280;47574;52.090;5.244;2023-02-16T10:40:43;102293.0;;;13.7;57.57
61676;BME280;47574;52.090;5.244;2023-02-16T10:42:28;102294.0;;;13.93;57.37
61676;BME280;47574;52.090;5.244;2023-02-16T10:45:59;102298.0;;;14.12;56.98
61676;BME280;47574;52.090;5.244;2023-02-16T10:47:38;102300.0;;;14.06;57.03
61676;BME280;47574;52.090;5.244;2023-02-16T10:49:16;102302.0;;;14.24;56.74
61676;BME280;47574;52.090;5.244;2023-02-16T10:50:55;102295.0;;;14.15;57.04
61676;BME280;47574;52.090;5.244;2023-02-16T10:54:20;102290.0;;;14.46;56.23
61676;BME280;47574;52.090;5.244;2023-02-16T10:56:00;102283.0;;;13.73;57.49
61676;BME280;47574;52.090;5.244;2023-02-16T10:57:38;102278.0;;;14.1;57.04
61676;BME280;47574;52.090;5.244;2023-02-16T10:59:16;102274.0;;;14.31;56.67
61676;BME280;47574;52.090;5.244;2023-02-16T11:04:39;102266.0;;;14.33;56.71
61676;BME280;47574;52.090;5.244;2023-02-16T11:06:18;102264.0;;;14.47;56.35
61676;BME280;47574;52.090;5.244;2023-02-16T11:07:58;102265.0;;;14.43;56.58
61676;BME280;47574;52.090;5.244;2023-02-16T11:09:36;102268.0;;;14.6;56.5
61676;BME280;47574;52.090;5.244;2023-02-16T11:12:53;102259.0;;;14.62;56.58
61676;BME280;47574;52.090;5.244;2023-02-16T11:14:31;102256.0;;;14.41;56.95
61676;BME280;47574;52.090;5.244;2023-02-16T11:16:10;102260.0;;;14.2;57.08
61676;BME280;47574;52.090;5.244;2023-02-16T11:19:33;102252.0;;;14.54;56.94
61676;BME280;47574;52.090;5.244;2023-02-16T11:21:11;102249.0;;;14.58;57.0
61676;BME280;47574;52.090;5.244;2023-02-16T11:22:47;102251.0;;;14.79;56.27
61676;BME280;47574;52.090;5.244;2023-02-16T11:24:25;102252.0;;;14.76;56.56
61676;BME280;47574;52.090;5.244;2023-02-16T11:27:58;102255.0;;;14.76;56.91
61676;BME280;47574;52.090;5.244;2023-02-16T11:29:36;102256.0;;;14.72;56.83
61676;BME280;47574;52.090;5.244;2023-02-16T11:31:15;102258.0;;;14.54;57.31
61676;BME280;47574;52.090;5.244;2023-02-16T11:32:52;102252.0;;;14.68;56.76
61676;BME280;47574;52.090;5.244;2023-02-16T11:36:19;102245.0;;;14.73;56.7
61676;BME280;47574;52.090;5.244;2023-02-16T11:38:23;102245.0;;;14.7;56.91
61676;BME280;47574;52.090;5.244;2023-02-16T11:40:06;102242.0;;;14.74;56.83
61676;BME280;47574;52.090;5.244;2023-02-16T11:41:54;102243.0;;;14.79;56.93
61676;BME280;47574;52.090;5.244;2023-02-16T11:43:35;102246.0;;;14.96;56.27
61676;BME280;47574;52.090;5.244;2023-02-16T11:45:23;102246.0;;;14.89;56.6
61676;BME280;47574;52.090;5.244;2023-02-16T11:48:42;102245.0;;;14.99;56.44
61676;BME280;47574;52.090;5.244;2023-02-16T11:50:22;102245.0;;;14.59;57.12
61676;BME280;47574;52.090;5.244;2023-02-16T11:52:17;102236.0;;;15.02;56.46
61676;BME280;47574;52.090;5.244;2023-02-16T11:53:59;102228.0;;;15.14;55.83